createdAt,value
2022-07-25T00:00:24.655Z,10.05
2022-07-25T00:02:27.015Z,9.13
2022-07-25T00:04:29.205Z,9.00
2022-07-25T00:06:31.138Z,8.40
2022-07-25T00:08:32.682Z,9.75
2022-07-25T00:10:34.298Z,8.30
2022-07-25T00:12:35.930Z,7.93
2022-07-25T00:14:37.709Z,8.57
2022-07-25T00:16:40.155Z,8.88
2022-07-25T00:18:42.239Z,9.30
2022-07-25T00:20:43.981Z,8.73
2022-07-25T00:22:45.875Z,9.13
2022-07-25T00:24:47.593Z,9.10
2022-07-25T00:26:49.335Z,8.38
2022-07-25T00:28:50.924Z,8.60
2022-07-25T00:30:52.805Z,9.38
2022-07-25T00:32:54.406Z,9.38
2022-07-25T00:34:56.158Z,8.70
2022-07-25T00:36:57.733Z,9.18
2022-07-25T00:38:59.560Z,9.60
2022-07-25T00:41:01.421Z,9.18
2022-07-25T00:43:03.685Z,8.85
2022-07-25T00:45:05.914Z,9.57
2022-07-25T00:47:07.678Z,9.40
2022-07-25T00:49:09.289Z,9.57
2022-07-25T00:51:12.036Z,9.70
2022-07-25T00:53:15.018Z,9.55
2022-07-25T00:55:16.805Z,9.95
2022-07-25T00:57:18.426Z,9.05
2022-07-25T00:59:20.050Z,9.98
2022-07-25T01:01:23.001Z,9.30
2022-07-25T01:03:24.735Z,9.60
2022-07-25T01:05:26.493Z,8.80
2022-07-25T01:07:28.494Z,8.50
2022-07-25T01:09:30.826Z,9.77
2022-07-25T01:11:32.460Z,8.63
2022-07-25T01:13:34.770Z,9.32
2022-07-25T01:15:36.632Z,9.68
2022-07-25T01:17:40.909Z,9.65
2022-07-25T01:19:42.431Z,8.35
2022-07-25T01:21:43.980Z,8.93
2022-07-25T01:23:45.652Z,8.85
2022-07-25T01:25:47.374Z,8.95
2022-07-25T01:27:54.884Z,9.55
2022-07-25T01:29:57.338Z,9.57
2022-07-25T01:31:58.893Z,8.98
2022-07-25T01:34:00.413Z,8.38
2022-07-25T01:36:02.059Z,9.13
2022-07-25T01:38:03.611Z,9.38
2022-07-25T01:40:09.114Z,9.10
2022-07-25T01:42:10.848Z,9.70
2022-07-25T01:44:12.496Z,9.63
2022-07-25T01:46:14.116Z,9.18
2022-07-25T01:48:15.697Z,9.23
2022-07-25T01:50:18.985Z,9.82
2022-07-25T01:52:20.600Z,9.57
2022-07-25T01:54:22.154Z,9.40
2022-07-25T01:56:24.211Z,9.93
2022-07-25T01:58:25.785Z,9.43
2022-07-25T02:00:28.156Z,10.35
2022-07-25T02:02:29.675Z,9.20
2022-07-25T02:04:31.485Z,9.43
2022-07-25T02:06:35.372Z,9.55
2022-07-25T02:08:36.940Z,10.18
2022-07-25T02:10:38.715Z,9.15
2022-07-25T02:12:40.291Z,10.00
2022-07-25T02:14:42.488Z,9.73
2022-07-25T02:16:44.071Z,10.00
2022-07-25T02:18:46.065Z,9.50
2022-07-25T02:20:49.397Z,10.35
2022-07-25T02:22:50.940Z,9.88
2022-07-25T02:24:52.589Z,10.93
2022-07-25T02:26:54.411Z,10.88
2022-07-25T02:28:55.899Z,9.73
2022-07-25T02:30:57.590Z,10.10
2022-07-25T02:33:00.176Z,10.75
2022-07-25T02:35:01.758Z,10.82
2022-07-25T02:37:03.507Z,10.25
2022-07-25T02:39:05.244Z,10.90
2022-07-25T02:41:07.385Z,10.93
2022-07-25T02:43:09.500Z,10.68
2022-07-25T02:45:11.245Z,10.98
2022-07-25T02:47:12.953Z,10.30
2022-07-25T02:49:14.713Z,10.60
2022-07-25T02:51:18.567Z,11.02
2022-07-25T02:53:34.174Z,10.32
2022-07-25T02:55:41.922Z,10.40
2022-07-25T02:57:43.760Z,10.32
2022-07-25T02:59:45.357Z,9.68
2022-07-25T03:01:47.055Z,10.80
2022-07-25T03:03:49.109Z,10.77
2022-07-25T03:05:50.856Z,10.30
2022-07-25T03:07:52.417Z,9.98
2022-07-25T03:09:53.921Z,10.02
2022-07-25T03:11:55.543Z,10.38
2022-07-25T03:13:58.025Z,10.65
2022-07-25T03:15:59.624Z,9.60
2022-07-25T03:18:01.443Z,9.70
2022-07-25T03:20:04.684Z,10.77
2022-07-25T03:22:06.437Z,9.88
2022-07-25T03:24:08.337Z,10.45
2022-07-25T03:26:10.316Z,11.43
2022-07-25T03:28:11.839Z,10.48
2022-07-25T03:30:13.509Z,10.55
2022-07-25T03:32:15.272Z,10.70
2022-07-25T03:34:16.988Z,10.32
2022-07-25T03:36:19.428Z,9.98
2022-07-25T03:38:21.021Z,10.57
2022-07-25T03:40:22.660Z,11.18
2022-07-25T03:42:26.704Z,10.07
2022-07-25T03:44:28.512Z,11.13
2022-07-25T03:46:30.225Z,11.15
2022-07-25T03:48:31.990Z,10.98
2022-07-25T03:50:33.851Z,10.32
2022-07-25T03:52:35.790Z,10.88
2022-07-25T03:54:37.332Z,10.05
2022-07-25T03:56:44.711Z,10.02
2022-07-25T03:58:46.215Z,10.48
2022-07-25T04:00:48.810Z,10.60
2022-07-25T04:02:50.836Z,10.68
2022-07-25T04:04:52.341Z,9.85
2022-07-25T04:06:54.182Z,10.82
2022-07-25T04:08:56.158Z,10.57
2022-07-25T04:10:57.766Z,10.57
2022-07-25T04:12:59.366Z,11.20
2022-07-25T04:15:01.226Z,9.75
2022-07-25T04:17:03.336Z,11.00
2022-07-25T04:19:05.659Z,9.70
2022-07-25T04:21:09.031Z,10.05
2022-07-25T04:23:10.900Z,10.50
2022-07-25T04:25:12.525Z,10.52
2022-07-25T04:27:14.205Z,10.73
2022-07-25T04:29:16.184Z,10.60
2022-07-25T04:31:18.128Z,9.95
2022-07-25T04:33:20.951Z,10.77
2022-07-25T04:35:22.883Z,10.68
2022-07-25T04:37:24.567Z,11.50
2022-07-25T04:39:26.171Z,10.93
2022-07-25T04:41:27.862Z,9.82
2022-07-25T04:43:29.547Z,10.07
2022-07-25T04:45:32.810Z,9.80
2022-07-25T04:47:34.712Z,9.75
2022-07-25T04:49:36.953Z,10.32
2022-07-25T04:51:38.588Z,11.23
2022-07-25T04:53:40.165Z,9.77
2022-07-25T04:55:41.713Z,10.43
2022-07-25T04:57:43.382Z,10.15
2022-07-25T04:59:45.057Z,9.93
2022-07-25T05:01:46.815Z,10.70
2022-07-25T05:03:50.309Z,10.50
2022-07-25T05:05:52.307Z,10.18
2022-07-25T05:07:59.015Z,9.88
2022-07-25T05:10:00.975Z,9.60
2022-07-25T05:12:02.936Z,9.93
2022-07-25T05:14:04.906Z,9.73
2022-07-25T05:16:07.275Z,9.48
2022-07-25T05:18:09.093Z,10.07
2022-07-25T05:20:12.274Z,9.70
2022-07-25T05:22:14.413Z,9.70
2022-07-25T05:24:16.229Z,9.70
2022-07-25T05:26:18.057Z,10.00
2022-07-25T05:28:19.901Z,10.82
2022-07-25T05:30:21.730Z,9.95
2022-07-25T05:32:23.414Z,10.35
2022-07-25T05:34:25.148Z,9.88
2022-07-25T05:36:26.831Z,10.07
2022-07-25T05:38:28.310Z,10.25
2022-07-25T05:40:30.070Z,9.98
2022-07-25T05:42:33.055Z,9.00
2022-07-25T05:44:34.724Z,9.00
2022-07-25T05:46:36.465Z,9.20
2022-07-25T05:48:38.113Z,9.45
2022-07-25T05:50:40.686Z,8.05
2022-07-25T05:52:42.791Z,9.27
2022-07-25T05:54:44.390Z,9.45
2022-07-25T05:56:46.135Z,9.18
2022-07-25T05:58:48.008Z,8.93
2022-07-25T06:00:51.094Z,8.75
2022-07-25T06:02:53.355Z,8.88
2022-07-25T06:04:55.143Z,8.23
2022-07-25T06:06:56.933Z,8.25
2022-07-25T06:08:58.891Z,7.72
2022-07-25T06:11:03.872Z,8.75
2022-07-25T06:13:06.622Z,8.07
2022-07-25T06:15:12.633Z,9.20
2022-07-25T06:17:26.902Z,8.65
2022-07-25T06:19:31.028Z,8.63
2022-07-25T06:21:32.648Z,8.30
2022-07-25T06:23:34.273Z,8.80
2022-07-25T06:25:36.370Z,8.50
2022-07-25T06:27:38.926Z,8.52
2022-07-25T06:29:40.493Z,8.80
2022-07-25T06:31:42.574Z,8.77
2022-07-25T06:33:48.893Z,8.20
2022-07-25T06:35:50.574Z,8.20
2022-07-25T06:37:52.355Z,7.60
2022-07-25T06:39:53.854Z,7.78
2022-07-25T06:41:55.552Z,7.95
2022-07-25T06:43:57.105Z,8.43
2022-07-25T06:45:58.653Z,9.07
2022-07-25T06:48:00.304Z,8.30
2022-07-25T06:50:02.386Z,8.40
2022-07-25T06:52:04.769Z,8.07
2022-07-25T06:54:06.784Z,9.07
2022-07-25T06:56:09.892Z,7.97
2022-07-25T06:58:13.701Z,8.05
2022-07-25T07:00:15.869Z,7.82
2022-07-25T07:02:18.017Z,8.27
2022-07-25T07:04:19.989Z,8.18
2022-07-25T07:06:21.570Z,7.80
2022-07-25T07:08:23.687Z,7.22
2022-07-25T07:10:25.944Z,7.40
2022-07-25T07:12:27.713Z,7.53
2022-07-25T07:14:30.024Z,7.95
2022-07-25T07:16:32.380Z,7.72
2022-07-25T07:18:34.476Z,7.13
2022-07-25T07:20:36.097Z,7.70
2022-07-25T07:22:45.156Z,7.72
2022-07-25T07:24:49.201Z,7.15
2022-07-25T07:26:51.948Z,7.93
2022-07-25T07:28:55.377Z,8.02
2022-07-25T07:33:19.080Z,7.57
2022-07-25T07:35:20.910Z,7.22
2022-07-25T07:37:22.562Z,7.47
2022-07-25T07:39:24.182Z,7.20
2022-07-25T07:41:26.145Z,7.40
2022-07-25T07:43:31.968Z,8.38
2022-07-25T07:45:33.848Z,7.65
2022-07-25T07:47:35.561Z,7.50
2022-07-25T07:49:37.360Z,8.05
2022-07-25T07:51:39.129Z,8.13
2022-07-25T07:53:59.431Z,7.93
2022-07-25T07:56:00.982Z,7.68
2022-07-25T07:58:02.849Z,7.38
2022-07-25T08:00:05.639Z,7.30
2022-07-25T08:02:14.288Z,7.40
2022-07-25T08:04:16.360Z,7.35
2022-07-25T08:06:18.359Z,6.55
2022-07-25T08:08:20.507Z,7.22
2022-07-25T08:10:24.829Z,7.00
2022-07-25T08:12:26.448Z,6.82
2022-07-25T08:14:28.339Z,7.38
2022-07-25T08:16:30.074Z,6.93
2022-07-25T08:18:33.119Z,7.15
2022-07-25T08:20:38.335Z,6.70
2022-07-25T08:22:46.456Z,8.07
2022-07-25T08:24:48.142Z,6.93
2022-07-25T08:26:49.737Z,6.82
2022-07-25T08:29:04.989Z,7.57
2022-07-25T08:31:13.107Z,7.30
2022-07-25T08:33:16.202Z,7.20
2022-07-25T08:35:19.565Z,7.25
2022-07-25T08:37:21.465Z,6.95
2022-07-25T08:39:23.226Z,8.48
2022-07-25T08:41:25.234Z,6.80
2022-07-25T08:43:27.215Z,7.03
2022-07-25T08:45:29.055Z,6.40
2022-07-25T08:47:30.934Z,7.03
2022-07-25T08:49:32.974Z,7.15
2022-07-25T08:51:34.994Z,6.60
2022-07-25T08:53:37.219Z,6.47
2022-07-25T08:55:39.708Z,6.30
2022-07-25T08:57:43.852Z,6.75
2022-07-25T08:59:45.523Z,6.70
2022-07-25T09:01:47.241Z,7.35
2022-07-25T09:03:51.457Z,7.07
2022-07-25T09:05:53.287Z,6.95
2022-07-25T09:07:56.458Z,7.05
2022-07-25T09:09:58.717Z,6.78
2022-07-25T09:12:00.748Z,7.05
2022-07-25T09:14:08.316Z,6.85
2022-07-25T09:16:10.736Z,7.18
2022-07-25T09:18:15.934Z,7.38
2022-07-25T09:20:19.527Z,7.50
2022-07-25T09:22:21.251Z,7.35
2022-07-25T09:24:22.986Z,7.40
2022-07-25T09:26:24.730Z,7.65
2022-07-25T09:28:29.453Z,7.07
2022-07-25T09:30:31.249Z,7.63
2022-07-25T09:32:32.795Z,6.80
2022-07-25T09:34:39.838Z,6.57
2022-07-25T09:37:02.610Z,8.43
2022-07-25T09:39:05.640Z,9.73
2022-07-25T09:41:07.975Z,8.30
2022-07-25T09:43:09.960Z,10.35
2022-07-25T09:45:13.434Z,7.22
2022-07-25T09:47:16.445Z,7.78
2022-07-25T09:49:19.267Z,7.50
2022-07-25T09:51:21.234Z,7.50
2022-07-25T09:53:23.157Z,7.60
2022-07-25T09:55:25.126Z,7.45
2022-07-25T09:57:27.403Z,7.03
2022-07-25T09:59:29.016Z,7.25
2022-07-25T10:01:48.444Z,7.22
2022-07-25T10:04:15.639Z,6.18
2022-07-25T10:06:22.105Z,6.70
2022-07-25T10:08:24.667Z,7.18
2022-07-25T10:10:30.592Z,7.68
2022-07-25T10:12:32.506Z,7.00
2022-07-25T10:14:35.589Z,7.00
2022-07-25T10:16:46.767Z,7.20
2022-07-25T10:18:55.924Z,7.13
2022-07-25T10:21:28.651Z,7.05
2022-07-25T10:23:30.836Z,7.18
2022-07-25T10:25:33.253Z,7.15
2022-07-25T10:27:44.620Z,7.40
2022-07-25T10:29:52.660Z,7.70
2022-07-25T10:32:05.293Z,6.97
2022-07-25T10:34:10.286Z,6.90
2022-07-25T10:36:12.610Z,7.25
2022-07-25T10:38:14.315Z,7.07
2022-07-25T10:40:32.221Z,6.65
2022-07-25T10:42:34.416Z,7.65
2022-07-25T10:44:42.143Z,7.30
2022-07-25T10:46:45.069Z,7.85
2022-07-25T10:48:57.668Z,7.13
2022-07-25T10:50:59.492Z,7.70
2022-07-25T10:53:01.698Z,7.40
2022-07-25T10:55:03.483Z,7.85
2022-07-25T10:57:13.765Z,6.97
2022-07-25T10:59:30.300Z,7.20
2022-07-25T11:01:35.628Z,7.05
2022-07-25T11:03:37.489Z,7.25
2022-07-25T11:05:54.621Z,6.68
2022-07-25T11:08:20.675Z,7.63
2022-07-25T11:10:26.174Z,7.70
2022-07-25T11:12:28.177Z,7.18
2022-07-25T11:14:33.251Z,7.25
2022-07-25T11:16:35.166Z,6.93
2022-07-25T11:18:41.601Z,7.80
2022-07-25T11:20:43.256Z,7.05
2022-07-25T11:22:52.329Z,7.30
2022-07-25T11:24:54.201Z,7.78
2022-07-25T11:26:55.794Z,7.82
2022-07-25T11:28:57.504Z,7.78
2022-07-25T11:31:04.604Z,7.65
2022-07-25T11:33:06.447Z,7.20
2022-07-25T11:35:10.003Z,7.55
2022-07-25T11:37:15.070Z,6.95
2022-07-25T11:39:18.975Z,7.75
2022-07-25T11:41:30.919Z,7.32
2022-07-25T11:43:33.044Z,6.70
2022-07-25T11:45:34.912Z,6.68
2022-07-25T11:47:37.123Z,6.95
2022-07-25T11:49:51.181Z,7.72
2022-07-25T11:51:52.964Z,7.68
2022-07-25T11:53:54.482Z,7.35
2022-07-25T11:55:56.397Z,6.95
2022-07-25T11:58:01.293Z,7.30
2022-07-25T12:00:23.473Z,7.10
2022-07-25T12:02:32.635Z,7.55
2022-07-25T12:04:34.279Z,6.65
2022-07-25T12:06:36.189Z,6.88
2022-07-25T12:08:42.765Z,6.70
2022-07-25T12:10:47.644Z,6.80
2022-07-25T12:13:04.114Z,6.75
2022-07-25T12:15:05.995Z,6.80
2022-07-25T12:17:07.648Z,6.03
2022-07-25T12:19:18.172Z,6.25
2022-07-25T12:21:19.697Z,6.32
2022-07-25T12:23:21.990Z,6.20
2022-07-25T12:25:28.879Z,6.55
2022-07-25T12:27:32.400Z,6.35
2022-07-25T12:29:34.235Z,6.38
2022-07-25T12:31:36.459Z,6.32
2022-07-25T12:33:38.483Z,6.55
2022-07-25T12:35:41.746Z,6.13
2022-07-25T12:37:44.571Z,6.35
2022-07-25T12:39:46.450Z,6.80
2022-07-25T12:41:48.022Z,6.45
2022-07-25T12:43:49.818Z,6.72
2022-07-25T12:45:51.645Z,6.60
2022-07-25T12:47:53.723Z,6.57
2022-07-25T12:49:56.299Z,6.05
2022-07-25T12:51:58.422Z,6.28
2022-07-25T12:54:00.088Z,6.47
2022-07-25T12:56:04.437Z,6.57
2022-07-25T12:58:06.400Z,6.45
2022-07-25T13:00:11.494Z,6.82
2022-07-25T13:02:16.508Z,6.30
2022-07-25T13:04:18.207Z,6.70
2022-07-25T13:06:21.006Z,6.45
2022-07-25T13:08:22.735Z,6.22
2022-07-25T13:10:24.460Z,6.45
2022-07-25T13:12:26.204Z,5.65
2022-07-25T13:14:27.972Z,5.88
2022-07-25T13:16:29.904Z,5.90
2022-07-25T13:18:31.791Z,6.18
2022-07-25T13:20:36.008Z,5.22
2022-07-25T13:22:37.911Z,5.70
2022-07-25T13:24:39.471Z,5.57
2022-07-25T13:26:41.126Z,5.72
2022-07-25T13:28:45.605Z,5.63
2022-07-25T13:30:47.768Z,5.72
2022-07-25T13:32:49.468Z,5.35
2022-07-25T13:34:50.930Z,5.20
2022-07-25T13:36:52.722Z,4.88
2022-07-25T13:38:54.296Z,4.60
2022-07-25T13:40:59.078Z,4.25
2022-07-25T13:43:01.284Z,4.55
2022-07-25T13:45:03.551Z,3.92
2022-07-25T13:47:05.527Z,4.07
2022-07-25T13:49:07.722Z,4.18
2022-07-25T13:51:09.552Z,4.38
2022-07-25T13:53:11.313Z,4.65
2022-07-25T13:55:12.835Z,3.85
2022-07-25T13:57:14.592Z,4.50
2022-07-25T13:59:21.215Z,3.85
2022-07-25T14:01:25.377Z,4.38
2022-07-25T14:03:27.118Z,4.10
2022-07-25T14:05:28.808Z,3.90
2022-07-25T14:07:30.627Z,4.15
2022-07-25T14:09:32.303Z,3.70
2022-07-25T14:11:34.101Z,4.05
2022-07-25T14:13:38.649Z,3.55
2022-07-25T14:15:40.488Z,5.40
2022-07-25T14:17:42.258Z,3.88
2022-07-25T14:19:44.782Z,4.10
2022-07-25T14:21:49.401Z,3.88
2022-07-25T14:23:51.432Z,4.13
2022-07-25T14:25:53.580Z,3.97
2022-07-25T14:27:55.486Z,4.07
2022-07-25T14:29:57.536Z,4.32
2022-07-25T14:31:59.380Z,3.97
2022-07-25T14:34:01.105Z,4.13
2022-07-25T14:36:05.798Z,4.45
2022-07-25T14:38:07.476Z,4.45
2022-07-25T14:40:11.106Z,4.40
2022-07-25T14:42:13.378Z,5.28
2022-07-25T14:44:15.098Z,4.60
2022-07-25T14:46:17.257Z,5.88
2022-07-25T14:48:21.241Z,4.68
2022-07-25T14:50:23.331Z,5.00
2022-07-25T14:52:27.977Z,5.55
2022-07-25T14:54:29.651Z,4.82
2022-07-25T14:56:31.436Z,5.07
2022-07-25T14:58:33.657Z,4.30
2022-07-25T15:00:35.538Z,4.20
2022-07-25T15:02:37.255Z,4.88
2022-07-25T15:04:40.775Z,5.35
2022-07-25T15:06:42.378Z,5.20
2022-07-25T15:08:44.895Z,4.80
2022-07-25T15:10:47.023Z,5.22
2022-07-25T15:12:54.318Z,5.65
2022-07-25T15:15:04.600Z,5.40
2022-07-25T15:17:06.250Z,5.63
2022-07-25T15:19:26.078Z,4.97
2022-07-25T15:21:28.210Z,6.10
2022-07-25T15:23:30.717Z,5.43
2022-07-25T15:26:00.676Z,5.45
2022-07-25T15:27:54.168Z,5.53
2022-07-25T15:29:56.002Z,5.57
2022-07-25T15:31:57.776Z,6.88
2022-07-25T15:33:59.425Z,6.68
2022-07-25T15:36:01.623Z,8.40
2022-07-25T15:38:03.984Z,7.38
2022-07-25T15:40:07.182Z,6.40
2022-07-25T15:42:09.238Z,7.85
2022-07-25T15:44:10.881Z,9.45
2022-07-25T15:46:13.304Z,8.27
2022-07-25T15:48:16.263Z,7.47
2022-07-25T15:50:21.077Z,7.78
2022-07-25T15:52:24.901Z,5.82
2022-07-25T15:54:29.586Z,7.13
2022-07-25T15:56:31.518Z,6.10
2022-07-25T15:58:33.104Z,8.35
2022-07-25T16:00:34.874Z,7.22
2022-07-25T16:02:36.555Z,6.63
2022-07-25T16:04:38.948Z,6.00
2022-07-25T16:06:40.734Z,6.35
2022-07-25T16:08:44.864Z,5.60
2022-07-25T16:10:58.760Z,6.20
2022-07-25T16:13:01.031Z,6.07
2022-07-25T16:15:03.149Z,6.47
2022-07-25T16:17:05.781Z,5.90
2022-07-25T16:19:08.802Z,5.43
2022-07-25T16:21:10.771Z,6.38
2022-07-25T16:23:13.914Z,6.70
2022-07-25T16:25:15.914Z,6.53
2022-07-25T16:27:17.635Z,6.32
2022-07-25T16:29:21.847Z,6.65
2022-07-25T16:31:23.689Z,6.13
2022-07-25T16:33:25.538Z,19.98
2022-07-25T16:35:27.252Z,96.60
2022-07-25T16:37:29.037Z,76.65
2022-07-25T16:39:30.667Z,43.42
2022-07-25T16:41:32.566Z,20.33
2022-07-25T16:43:34.265Z,12.35
2022-07-25T16:45:36.484Z,9.55
2022-07-25T16:47:42.656Z,8.82
2022-07-25T16:49:44.569Z,8.40
2022-07-25T16:51:46.586Z,7.38
2022-07-25T16:53:48.629Z,14.20
2022-07-25T16:55:54.041Z,34.33
2022-07-25T16:57:55.837Z,27.25
2022-07-25T16:59:57.683Z,34.28
2022-07-25T17:02:00.167Z,29.20
2022-07-25T17:04:02.470Z,21.75
2022-07-25T17:06:04.449Z,41.40
2022-07-25T17:08:06.062Z,41.60
2022-07-25T17:10:08.669Z,30.45
2022-07-25T17:12:10.324Z,20.27
2022-07-25T17:14:12.247Z,16.15
2022-07-25T17:16:14.176Z,14.25
2022-07-25T17:18:16.099Z,103.88
2022-07-25T17:20:18.676Z,87.07
2022-07-25T17:22:20.608Z,59.58
2022-07-25T17:24:22.108Z,44.80
2022-07-25T17:26:23.929Z,34.50
2022-07-25T17:28:25.987Z,26.27
2022-07-25T17:30:27.607Z,14.48
2022-07-25T17:32:30.231Z,11.70
2022-07-25T17:34:31.908Z,14.10
2022-07-25T17:36:33.970Z,9.98
2022-07-25T17:38:36.989Z,9.10
2022-07-25T17:40:39.089Z,9.02
2022-07-25T17:42:45.115Z,9.18
2022-07-25T17:44:47.305Z,7.90
2022-07-25T17:46:50.443Z,8.73
2022-07-25T17:48:52.233Z,8.07
2022-07-25T17:50:55.007Z,8.68
2022-07-25T17:52:59.676Z,8.25
2022-07-25T17:55:03.923Z,8.40
2022-07-25T17:57:06.218Z,8.02
2022-07-25T17:59:08.731Z,8.30
2022-07-25T18:01:10.808Z,8.15
2022-07-25T18:03:12.837Z,7.75
2022-07-25T18:05:14.738Z,8.20
2022-07-25T18:07:16.750Z,8.63
2022-07-25T18:09:20.304Z,7.60
2022-07-25T18:11:22.201Z,7.35
2022-07-25T18:13:23.888Z,8.00
2022-07-25T18:15:25.941Z,8.10
2022-07-25T18:17:27.844Z,8.15
2022-07-25T18:19:29.550Z,7.30
2022-07-25T18:21:31.234Z,7.65
2022-07-25T18:23:35.008Z,7.20
2022-07-25T18:25:38.150Z,7.47
2022-07-25T18:27:46.160Z,7.50
2022-07-25T18:29:47.772Z,7.68
2022-07-25T18:31:50.425Z,7.53
2022-07-25T18:33:52.173Z,7.10
2022-07-25T18:35:54.282Z,7.72
2022-07-25T18:37:55.845Z,7.03
2022-07-25T18:39:57.433Z,7.78
2022-07-25T18:41:59.064Z,8.63
2022-07-25T18:44:03.225Z,7.35
2022-07-25T18:46:05.015Z,7.55
2022-07-25T18:48:08.319Z,7.88
2022-07-25T18:50:10.727Z,7.70
2022-07-25T18:52:12.473Z,8.27
2022-07-25T18:54:14.326Z,7.88
2022-07-25T18:56:16.759Z,8.18
2022-07-25T18:58:18.617Z,8.60
2022-07-25T19:00:20.753Z,7.97
2022-07-25T19:02:22.567Z,8.65
2022-07-25T19:04:24.122Z,8.50
2022-07-25T19:06:26.095Z,8.45
2022-07-25T19:08:27.974Z,8.15
2022-07-25T19:10:29.747Z,7.57
2022-07-25T19:12:31.777Z,9.02
2022-07-25T19:14:33.576Z,8.80
2022-07-25T19:16:35.373Z,7.10
2022-07-25T19:18:37.300Z,7.57
2022-07-25T19:20:39.490Z,7.95
2022-07-25T19:22:41.405Z,7.28
2022-07-25T19:24:43.629Z,7.88
2022-07-25T19:26:48.242Z,8.57
2022-07-25T19:28:51.215Z,8.25
2022-07-25T19:30:52.997Z,7.20
2022-07-25T19:32:54.580Z,6.97
2022-07-25T19:34:56.238Z,7.07
2022-07-25T19:36:59.292Z,7.75
2022-07-25T19:39:01.358Z,7.10
2022-07-25T19:41:03.182Z,7.60
2022-07-25T19:43:04.933Z,7.32
2022-07-25T19:45:07.100Z,8.48
2022-07-25T19:47:11.856Z,6.47
2022-07-25T19:49:13.800Z,6.63
2022-07-25T19:51:15.637Z,6.85
2022-07-25T19:53:17.350Z,6.40
2022-07-25T19:55:18.892Z,6.22
2022-07-25T19:57:20.503Z,6.72
2022-07-25T19:59:22.062Z,6.57
2022-07-25T20:01:23.844Z,8.73
2022-07-25T20:03:25.448Z,7.20
2022-07-25T20:05:27.240Z,6.70
2022-07-25T20:07:30.328Z,6.82
2022-07-25T20:09:33.584Z,6.72
2022-07-25T20:11:38.212Z,7.40
2022-07-25T20:13:40.108Z,7.35
2022-07-25T20:15:41.662Z,7.22
2022-07-25T20:17:43.556Z,6.97
2022-07-25T20:19:45.158Z,7.35
2022-07-25T20:21:47.344Z,9.93
2022-07-25T20:23:49.328Z,6.97
2022-07-25T20:25:51.284Z,6.43
2022-07-25T20:27:53.084Z,6.88
2022-07-25T20:29:54.792Z,6.53
2022-07-25T20:31:56.681Z,6.13
2022-07-25T20:33:58.230Z,7.30
2022-07-25T20:36:00.244Z,6.40
2022-07-25T20:38:09.301Z,6.50
2022-07-25T20:40:12.130Z,7.32
2022-07-25T20:42:13.906Z,7.22
2022-07-25T20:44:15.606Z,6.28
2022-07-25T20:46:17.177Z,7.10
2022-07-25T20:48:19.006Z,6.05
2022-07-25T20:50:20.837Z,6.97
2022-07-25T20:52:22.510Z,6.47
2022-07-25T20:54:24.184Z,6.32
2022-07-25T20:56:25.790Z,5.95
2022-07-25T20:58:27.442Z,6.30
2022-07-25T21:00:30.558Z,6.13
2022-07-25T21:02:33.400Z,5.60
2022-07-25T21:04:35.310Z,6.07
2022-07-25T21:06:37.163Z,6.25
2022-07-25T21:08:39.130Z,5.53
2022-07-25T21:10:40.923Z,5.82
2022-07-25T21:12:42.828Z,5.68
2022-07-25T21:14:44.372Z,5.93
2022-07-25T21:16:45.977Z,6.03
2022-07-25T21:18:47.948Z,5.55
2022-07-25T21:20:49.531Z,5.85
2022-07-25T21:22:51.478Z,6.20
2022-07-25T21:24:53.771Z,6.45
2022-07-25T21:26:55.298Z,5.90
2022-07-25T21:28:56.986Z,5.70
2022-07-25T21:30:58.807Z,6.50
2022-07-25T21:33:00.373Z,6.38
2022-07-25T21:35:02.117Z,6.07
2022-07-25T21:37:03.686Z,7.50
2022-07-25T21:39:05.467Z,5.95
2022-07-25T21:41:07.600Z,6.72
2022-07-25T21:43:13.007Z,6.45
2022-07-25T21:45:14.966Z,5.68
2022-07-25T21:47:16.903Z,6.15
2022-07-25T21:49:42.034Z,7.25
2022-07-25T21:51:44.681Z,6.05
2022-07-25T21:53:47.822Z,7.80
2022-07-25T21:55:49.374Z,7.95
2022-07-25T21:57:51.545Z,8.65
2022-07-25T21:59:53.287Z,7.88
2022-07-25T22:01:54.716Z,6.88
2022-07-25T22:03:56.363Z,6.68
2022-07-25T22:05:57.953Z,5.97
2022-07-25T22:07:59.563Z,6.15
2022-07-25T22:10:01.211Z,5.47
2022-07-25T22:12:02.720Z,5.90
2022-07-25T22:14:04.671Z,5.32
2022-07-25T22:16:06.597Z,4.85
2022-07-25T22:18:08.812Z,4.72
2022-07-25T22:20:11.008Z,5.50
2022-07-25T22:22:12.828Z,4.63
2022-07-25T22:24:14.573Z,5.20
2022-07-25T22:26:16.164Z,5.75
2022-07-25T22:28:17.724Z,4.90
2022-07-25T22:30:19.805Z,4.38
2022-07-25T22:32:21.499Z,4.70
2022-07-25T22:34:23.353Z,4.82
2022-07-25T22:36:24.934Z,4.78
2022-07-25T22:38:26.585Z,4.30
2022-07-25T22:40:28.142Z,4.93
2022-07-25T22:42:29.654Z,4.28
2022-07-25T22:44:31.440Z,5.60
2022-07-25T22:46:33.137Z,4.68
2022-07-25T22:48:34.803Z,4.30
2022-07-25T22:50:36.584Z,5.55
2022-07-25T22:52:38.143Z,4.22
2022-07-25T22:54:39.902Z,3.60
2022-07-25T22:56:41.465Z,4.85
2022-07-25T22:58:43.003Z,4.00
2022-07-25T23:00:44.667Z,4.07
2022-07-25T23:02:46.142Z,4.30
2022-07-25T23:04:47.939Z,4.80
2022-07-25T23:06:50.665Z,4.07
2022-07-25T23:08:52.904Z,4.20
2022-07-25T23:10:55.497Z,4.90
2022-07-25T23:12:57.180Z,4.22
2022-07-25T23:14:58.905Z,3.88
2022-07-25T23:17:20.240Z,4.00
2022-07-25T23:19:22.119Z,5.05
2022-07-25T23:21:27.743Z,4.28
2022-07-25T23:23:29.275Z,4.13
2022-07-25T23:25:30.905Z,4.90
2022-07-25T23:27:34.901Z,7.05
2022-07-25T23:29:37.425Z,4.32
2022-07-25T23:31:39.755Z,4.15
2022-07-25T23:33:41.474Z,4.80
2022-07-25T23:35:43.422Z,5.15
2022-07-25T23:37:45.934Z,4.55
2022-07-25T23:39:47.537Z,4.32
2022-07-25T23:41:49.182Z,4.00
2022-07-25T23:43:56.686Z,4.43
2022-07-25T23:45:59.465Z,3.80
2022-07-25T23:48:03.852Z,5.63
2022-07-25T23:50:06.084Z,4.85
2022-07-25T23:52:08.827Z,4.22
2022-07-25T23:54:10.442Z,4.47
2022-07-25T23:56:13.472Z,4.05
2022-07-25T23:58:16.621Z,4.20
